createdAt,value
2022-12-05T00:01:41.191Z,3.10
2022-12-05T00:03:47.975Z,3.10
2022-12-05T00:05:52.581Z,3.10
2022-12-05T00:07:57.156Z,3.10
2022-12-05T00:10:01.383Z,3.00
2022-12-05T00:12:07.560Z,3.00
2022-12-05T00:14:12.722Z,3.00
2022-12-05T00:16:19.069Z,3.00
2022-12-05T00:18:23.340Z,3.00
2022-12-05T00:20:29.098Z,3.00
2022-12-05T00:22:33.342Z,3.10
2022-12-05T00:24:37.712Z,3.10
2022-12-05T00:26:42.262Z,3.10
2022-12-05T00:28:46.811Z,3.20
2022-12-05T00:30:51.321Z,3.20
2022-12-05T00:32:55.662Z,3.10
2022-12-05T00:34:59.960Z,3.10
2022-12-05T00:37:05.759Z,2.90
2022-12-05T00:39:12.237Z,2.90
2022-12-05T00:41:18.559Z,2.80
2022-12-05T00:43:23.580Z,2.90
2022-12-05T00:45:28.165Z,2.80
2022-12-05T00:47:35.613Z,2.70
2022-12-05T00:49:40.058Z,2.70
2022-12-05T00:51:45.222Z,2.70
2022-12-05T00:53:51.141Z,2.70
2022-12-05T00:55:55.390Z,2.70
2022-12-05T00:57:59.641Z,2.70
2022-12-05T01:00:04.110Z,2.60
2022-12-05T01:02:08.712Z,2.60
2022-12-05T01:04:14.957Z,2.50
2022-12-05T01:06:19.578Z,2.50
2022-12-05T01:08:23.807Z,2.50
2022-12-05T01:10:29.344Z,2.40
2022-12-05T01:12:33.599Z,2.50
2022-12-05T01:14:37.859Z,2.50
2022-12-05T01:16:44.430Z,2.50
2022-12-05T01:18:48.866Z,2.50
2022-12-05T01:20:54.004Z,2.60
2022-12-05T01:22:58.221Z,2.60
2022-12-05T01:25:22.367Z,2.60
2022-12-05T01:27:28.086Z,2.50
2022-12-05T01:29:32.553Z,2.60
2022-12-05T01:31:38.573Z,2.50
2022-12-05T01:33:42.928Z,2.50
2022-12-05T01:35:47.347Z,2.50
2022-12-05T01:37:52.419Z,2.50
2022-12-05T01:39:57.002Z,2.40
2022-12-05T01:42:03.605Z,2.50
2022-12-05T01:44:29.998Z,2.50
2022-12-05T01:46:36.473Z,2.30
2022-12-05T01:48:40.890Z,2.20
2022-12-05T01:50:45.529Z,2.30
2022-12-05T01:52:49.824Z,2.20
2022-12-05T01:55:03.272Z,2.20
2022-12-05T01:57:11.862Z,2.10
2022-12-05T01:59:19.674Z,2.20
2022-12-05T02:01:24.118Z,2.30
2022-12-05T02:03:28.605Z,2.40
2022-12-05T02:05:34.723Z,2.50
2022-12-05T02:07:43.541Z,2.50
2022-12-05T02:09:51.072Z,2.50
2022-12-05T02:11:57.608Z,2.50
2022-12-05T02:14:24.249Z,2.50
2022-12-05T02:16:45.930Z,2.40
2022-12-05T02:19:06.178Z,2.40
2022-12-05T02:21:36.948Z,2.40
2022-12-05T02:24:04.259Z,2.30
2022-12-05T02:26:46.012Z,2.30
2022-12-05T02:29:11.098Z,2.20
2022-12-05T02:31:21.998Z,2.20
2022-12-05T02:33:36.162Z,2.20
2022-12-05T02:35:49.294Z,2.30
2022-12-05T02:38:00.894Z,2.30
2022-12-05T02:40:12.371Z,2.40
2022-12-05T02:42:23.224Z,2.30
2022-12-05T02:44:33.381Z,2.30
2022-12-05T02:46:42.230Z,2.20
2022-12-05T02:48:51.563Z,2.20
2022-12-05T02:51:00.142Z,2.20
2022-12-05T02:53:09.717Z,2.10
2022-12-05T02:55:15.788Z,2.10
2022-12-05T02:57:22.147Z,2.20
2022-12-05T02:59:26.334Z,2.20
2022-12-05T03:01:32.988Z,2.20
2022-12-05T03:03:38.847Z,2.20
2022-12-05T03:05:48.394Z,2.20
2022-12-05T03:07:56.011Z,2.20
2022-12-05T03:10:03.899Z,2.20
2022-12-05T03:12:13.830Z,2.20
2022-12-05T03:14:22.940Z,2.20
2022-12-05T03:16:32.767Z,2.30
2022-12-05T03:18:42.014Z,2.30
2022-12-05T03:20:50.467Z,2.30
2022-12-05T03:22:59.652Z,2.20
2022-12-05T03:25:05.248Z,2.20
2022-12-05T03:27:17.292Z,2.30
2022-12-05T03:29:33.693Z,2.40
2022-12-05T03:31:43.938Z,2.40
2022-12-05T03:33:52.247Z,2.40
2022-12-05T03:36:03.811Z,2.50
2022-12-05T03:38:13.865Z,2.50
2022-12-05T03:40:33.780Z,2.40
2022-12-05T03:42:44.039Z,2.50
2022-12-05T03:44:54.278Z,2.40
2022-12-05T03:47:02.504Z,2.40
2022-12-05T03:49:13.200Z,2.40
2022-12-05T03:51:22.088Z,2.30
2022-12-05T03:53:30.202Z,2.30
2022-12-05T03:55:37.301Z,2.30
2022-12-05T03:57:48.426Z,2.30
2022-12-05T03:59:58.085Z,2.20
2022-12-05T04:02:08.594Z,2.10
2022-12-05T04:04:18.515Z,2.20
2022-12-05T04:06:28.942Z,2.10
2022-12-05T04:08:38.695Z,2.00
2022-12-05T04:10:50.254Z,1.90
2022-12-05T04:12:57.469Z,1.90
2022-12-05T04:15:06.302Z,1.90
2022-12-05T04:17:16.564Z,2.00
2022-12-05T04:19:26.629Z,2.10
2022-12-05T04:21:38.833Z,2.10
2022-12-05T04:23:47.647Z,2.10
2022-12-05T04:26:00.189Z,2.10
2022-12-05T04:28:22.215Z,2.10
2022-12-05T04:30:27.961Z,2.10
2022-12-05T04:32:38.737Z,2.00
2022-12-05T04:34:52.164Z,1.90
2022-12-05T04:37:01.068Z,1.90
2022-12-05T04:39:10.708Z,2.00
2022-12-05T04:41:23.821Z,2.10
2022-12-05T04:43:30.256Z,2.10
2022-12-05T04:45:36.654Z,2.00
2022-12-05T04:47:45.216Z,2.00
2022-12-05T04:49:53.825Z,1.90
2022-12-05T04:52:02.294Z,1.80
2022-12-05T04:54:14.762Z,1.80
2022-12-05T04:56:21.800Z,1.80
2022-12-05T04:58:27.957Z,1.80
2022-12-05T05:00:36.371Z,1.80
2022-12-05T05:02:46.363Z,1.80
2022-12-05T05:04:56.401Z,1.80
2022-12-05T05:07:00.505Z,1.90
2022-12-05T05:09:05.836Z,1.90
2022-12-05T05:11:15.127Z,1.90
2022-12-05T05:13:19.338Z,1.80
2022-12-05T05:15:23.695Z,1.80
2022-12-05T05:17:27.793Z,1.80
2022-12-05T05:19:32.277Z,1.80
2022-12-05T05:21:39.900Z,1.80
2022-12-05T05:23:44.310Z,1.80
2022-12-05T05:25:54.009Z,1.70
2022-12-05T05:27:58.564Z,1.70
2022-12-05T05:30:02.682Z,1.80
2022-12-05T05:32:07.183Z,1.80
2022-12-05T05:34:11.915Z,1.80
2022-12-05T05:36:17.837Z,1.80
2022-12-05T05:38:23.519Z,1.90
2022-12-05T05:40:27.766Z,1.80
2022-12-05T05:42:31.899Z,1.90
2022-12-05T05:44:36.168Z,1.90
2022-12-05T05:46:40.502Z,1.90
2022-12-05T05:48:44.895Z,1.90
2022-12-05T05:50:49.322Z,1.90
2022-12-05T05:52:53.747Z,2.00
2022-12-05T05:54:59.595Z,2.00
2022-12-05T05:57:04.705Z,2.00
2022-12-05T05:59:08.910Z,2.00
2022-12-05T06:01:15.390Z,1.90
2022-12-05T06:03:19.741Z,1.90
2022-12-05T06:05:24.168Z,1.90
2022-12-05T06:07:29.070Z,1.90
2022-12-05T06:09:33.660Z,1.90
2022-12-05T06:11:39.355Z,1.90
2022-12-05T06:13:43.963Z,1.90
2022-12-05T06:15:48.168Z,1.90
2022-12-05T06:17:52.667Z,1.80
2022-12-05T06:19:57.204Z,1.90
2022-12-05T06:22:01.712Z,1.90
2022-12-05T06:24:06.524Z,2.00
2022-12-05T06:26:13.034Z,2.10
2022-12-05T06:28:21.928Z,2.10
2022-12-05T06:30:26.269Z,2.10
2022-12-05T06:32:30.893Z,2.10
2022-12-05T06:34:36.272Z,2.10
2022-12-05T06:36:40.743Z,2.10
2022-12-05T06:38:45.435Z,2.00
2022-12-05T06:40:49.548Z,2.00
2022-12-05T06:42:55.067Z,2.00
2022-12-05T06:45:01.158Z,2.00
2022-12-05T06:47:07.808Z,2.00
2022-12-05T06:49:12.553Z,2.10
2022-12-05T06:51:18.594Z,2.20
2022-12-05T06:53:22.744Z,2.20
2022-12-05T06:55:27.237Z,2.10
2022-12-05T06:57:31.275Z,2.10
2022-12-05T06:59:35.340Z,2.20
2022-12-05T07:01:41.212Z,2.20
2022-12-05T07:03:45.710Z,2.30
2022-12-05T07:05:49.877Z,2.40
2022-12-05T07:07:54.550Z,2.40
2022-12-05T07:09:59.131Z,2.50
2022-12-05T07:12:03.537Z,2.60
2022-12-05T07:14:19.139Z,2.70
2022-12-05T07:16:29.395Z,2.60
2022-12-05T07:18:34.965Z,2.50
2022-12-05T07:21:03.997Z,2.40
2022-12-05T07:23:03.774Z,2.40
2022-12-05T07:25:08.800Z,2.50
2022-12-05T07:27:13.293Z,2.50
2022-12-05T07:29:17.635Z,2.50
2022-12-05T07:31:24.089Z,2.50
2022-12-05T07:33:28.322Z,2.50
2022-12-05T07:35:34.675Z,2.50
2022-12-05T07:37:40.372Z,2.50
2022-12-05T07:39:44.911Z,2.50
2022-12-05T07:41:49.496Z,2.60
2022-12-05T07:43:56.014Z,2.70
2022-12-05T07:46:04.538Z,2.70
2022-12-05T07:48:08.868Z,2.70
2022-12-05T07:50:13.675Z,2.60
2022-12-05T07:52:21.818Z,2.70
2022-12-05T07:54:26.044Z,2.60
2022-12-05T07:56:30.333Z,2.60
2022-12-05T07:58:35.450Z,2.70
2022-12-05T08:00:39.670Z,2.80
2022-12-05T08:02:44.054Z,2.80
2022-12-05T08:04:48.306Z,2.90
2022-12-05T08:06:52.425Z,3.00
2022-12-05T08:08:58.595Z,3.00
2022-12-05T08:11:05.876Z,3.10
2022-12-05T08:13:09.941Z,3.20
2022-12-05T08:15:14.013Z,3.20
2022-12-05T08:17:18.883Z,3.20
2022-12-05T08:19:22.944Z,3.30
2022-12-05T08:21:27.202Z,3.30
2022-12-05T08:23:32.557Z,3.20
2022-12-05T08:25:38.037Z,3.30
2022-12-05T08:27:42.088Z,3.30
2022-12-05T08:29:46.234Z,3.20
2022-12-05T08:31:53.129Z,3.20
2022-12-05T08:33:59.529Z,3.30
2022-12-05T08:36:05.010Z,3.30
2022-12-05T08:38:09.142Z,3.30
2022-12-05T08:40:13.981Z,3.30
2022-12-05T08:42:19.433Z,3.30
2022-12-05T08:44:23.714Z,3.30
2022-12-05T08:46:27.884Z,3.30
2022-12-05T08:48:32.999Z,3.30
2022-12-05T08:50:40.613Z,3.40
2022-12-05T08:52:44.642Z,3.50
2022-12-05T08:54:48.667Z,3.60
2022-12-05T08:56:53.251Z,3.60
2022-12-05T08:59:04.738Z,3.70
2022-12-05T09:01:12.272Z,3.80
2022-12-05T09:03:16.996Z,3.70
2022-12-05T09:05:28.472Z,3.80
2022-12-05T09:07:33.462Z,3.90
2022-12-05T09:09:37.741Z,3.90
2022-12-05T09:11:46.868Z,3.90
2022-12-05T09:13:52.485Z,3.90
2022-12-05T09:15:58.366Z,4.00
2022-12-05T09:18:02.514Z,4.00
2022-12-05T09:20:08.938Z,4.00
2022-12-05T09:22:13.142Z,4.10
2022-12-05T09:24:17.382Z,4.00
2022-12-05T09:26:25.168Z,4.00
2022-12-05T09:28:29.576Z,4.10
2022-12-05T09:30:33.722Z,4.10
2022-12-05T09:32:39.156Z,4.10
2022-12-05T09:34:43.383Z,4.20
2022-12-05T09:36:55.859Z,4.30
2022-12-05T09:39:08.310Z,4.30
2022-12-05T09:41:47.952Z,4.40
2022-12-05T09:43:59.224Z,4.40
2022-12-05T09:46:10.936Z,4.50
2022-12-05T09:48:21.025Z,4.70
2022-12-05T09:50:25.801Z,4.70
2022-12-05T09:52:32.818Z,4.60
2022-12-05T09:54:36.882Z,4.60
2022-12-05T09:56:51.726Z,4.40
2022-12-05T09:58:57.878Z,4.40
2022-12-05T10:01:09.867Z,4.40
2022-12-05T10:03:27.224Z,4.50
2022-12-05T10:05:41.831Z,4.60
2022-12-05T10:07:53.622Z,4.50
2022-12-05T10:10:08.900Z,4.60
2022-12-05T10:12:24.307Z,4.60
2022-12-05T10:14:42.841Z,4.60
2022-12-05T10:16:50.876Z,4.50
2022-12-05T10:19:01.232Z,4.60
2022-12-05T10:21:13.581Z,4.70
2022-12-05T10:23:41.543Z,4.80
2022-12-05T10:25:46.986Z,4.90
2022-12-05T10:27:53.123Z,4.80
2022-12-05T10:30:02.532Z,4.90
2022-12-05T10:32:14.383Z,4.80
2022-12-05T10:34:29.553Z,4.80
2022-12-05T10:36:33.857Z,4.80
2022-12-05T10:38:38.978Z,4.70
2022-12-05T10:40:45.971Z,4.70
2022-12-05T10:42:51.495Z,4.70
2022-12-05T10:44:59.841Z,4.70
2022-12-05T10:47:04.216Z,4.70
2022-12-05T10:49:12.831Z,4.90
2022-12-05T10:51:22.210Z,4.70
2022-12-05T10:53:29.165Z,4.80
2022-12-05T10:55:37.504Z,4.90
2022-12-05T10:57:41.562Z,4.80
2022-12-05T10:59:48.273Z,4.80
2022-12-05T11:01:56.959Z,4.90
2022-12-05T11:04:13.846Z,4.80
2022-12-05T11:06:25.407Z,4.80
2022-12-05T11:09:02.365Z,4.70
2022-12-05T11:11:06.844Z,4.70
2022-12-05T11:13:17.284Z,4.70
2022-12-05T11:15:25.605Z,4.80
2022-12-05T11:17:34.077Z,4.80
2022-12-05T11:19:39.465Z,4.70
2022-12-05T11:21:45.607Z,4.80
2022-12-05T11:23:50.308Z,4.70
2022-12-05T11:25:54.922Z,4.70
2022-12-05T11:28:01.586Z,4.70
2022-12-05T11:30:18.952Z,4.70
2022-12-05T11:32:25.517Z,4.70
2022-12-05T11:34:37.493Z,4.60
2022-12-05T11:36:47.829Z,4.60
2022-12-05T11:39:00.146Z,4.70
2022-12-05T11:41:31.099Z,4.80
2022-12-05T11:44:17.601Z,4.80
2022-12-05T11:46:29.348Z,4.80
2022-12-05T11:48:51.005Z,4.80
2022-12-05T11:51:27.014Z,4.90
2022-12-05T11:53:50.601Z,4.90
2022-12-05T11:56:03.228Z,4.90
2022-12-05T11:58:35.095Z,4.90
2022-12-05T12:00:52.352Z,4.90
2022-12-05T12:03:27.276Z,4.90
2022-12-05T12:05:38.826Z,4.90
2022-12-05T12:07:58.285Z,4.90
2022-12-05T12:10:12.952Z,4.90
2022-12-05T12:12:25.683Z,4.90
2022-12-05T12:14:37.479Z,4.90
2022-12-05T12:16:50.280Z,4.90
2022-12-05T12:19:19.873Z,5.00
2022-12-05T12:21:36.899Z,5.00
2022-12-05T12:24:03.801Z,5.10
2022-12-05T12:26:14.475Z,5.10
2022-12-05T12:28:32.314Z,5.10
2022-12-05T12:30:53.083Z,5.00
2022-12-05T12:33:05.013Z,5.00
2022-12-05T12:35:31.101Z,5.00
2022-12-05T12:37:48.829Z,5.00
2022-12-05T12:39:58.882Z,5.00
2022-12-05T12:42:13.485Z,5.00
2022-12-05T12:44:40.754Z,5.00
2022-12-05T12:46:50.756Z,5.00
2022-12-05T12:49:10.503Z,5.00
2022-12-05T12:51:15.624Z,5.00
2022-12-05T12:53:55.816Z,5.10
2022-12-05T12:56:06.619Z,5.00
2022-12-05T12:58:22.203Z,5.00
2022-12-05T13:00:37.617Z,5.00
2022-12-05T13:02:47.619Z,5.10
2022-12-05T13:04:58.432Z,5.00
2022-12-05T13:07:09.485Z,4.90
2022-12-05T13:09:21.798Z,4.80
2022-12-05T13:11:27.863Z,4.80
2022-12-05T13:13:37.866Z,4.90
2022-12-05T13:15:47.280Z,4.90
2022-12-05T13:17:52.658Z,4.90
2022-12-05T13:19:57.742Z,4.90
2022-12-05T13:22:02.569Z,4.90
2022-12-05T13:24:07.877Z,4.80
2022-12-05T13:26:13.929Z,4.80
2022-12-05T13:28:27.876Z,4.70
2022-12-05T13:30:54.237Z,4.60
2022-12-05T13:33:00.652Z,4.60
2022-12-05T13:35:11.457Z,4.50
2022-12-05T13:37:39.750Z,4.60
2022-12-05T13:40:09.291Z,4.70
2022-12-05T13:42:24.500Z,4.70
2022-12-05T13:44:34.444Z,4.60
2022-12-05T13:46:40.764Z,4.50
2022-12-05T13:48:48.318Z,4.50
2022-12-05T13:50:56.285Z,4.50
2022-12-05T13:53:02.777Z,4.50
2022-12-05T13:55:21.517Z,4.50
2022-12-05T13:57:47.957Z,4.50
2022-12-05T14:00:05.908Z,4.60
2022-12-05T14:02:55.281Z,4.70
2022-12-05T14:04:59.566Z,4.70
2022-12-05T14:07:03.578Z,4.60
2022-12-05T14:09:30.924Z,4.50
2022-12-05T14:11:35.143Z,4.60
2022-12-05T14:13:45.208Z,4.60
2022-12-05T14:15:50.478Z,4.60
2022-12-05T14:18:01.837Z,4.70
2022-12-05T14:20:23.749Z,4.70
2022-12-05T14:22:54.907Z,4.70
2022-12-05T14:25:07.390Z,4.60
2022-12-05T14:27:18.047Z,4.60
2022-12-05T14:29:40.710Z,4.50
2022-12-05T14:31:58.403Z,4.60
2022-12-05T14:34:24.934Z,4.70
2022-12-05T14:36:31.715Z,4.70
2022-12-05T14:38:38.782Z,4.70
2022-12-05T14:40:45.780Z,4.70
2022-12-05T14:42:55.544Z,4.60
2022-12-05T14:45:03.124Z,4.60
2022-12-05T14:47:19.201Z,4.70
2022-12-05T14:49:51.446Z,4.70
2022-12-05T14:51:59.536Z,4.60
2022-12-05T14:54:07.379Z,4.70
2022-12-05T14:56:23.584Z,4.70
2022-12-05T14:58:35.329Z,4.70
2022-12-05T15:00:43.751Z,4.60
2022-12-05T15:02:57.806Z,4.70
2022-12-05T15:05:16.469Z,4.70
2022-12-05T15:07:22.179Z,4.60
2022-12-05T15:09:46.913Z,4.60
2022-12-05T15:11:51.811Z,4.60
2022-12-05T15:14:01.816Z,4.60
2022-12-05T15:16:13.479Z,4.60
2022-12-05T15:18:24.427Z,4.60
2022-12-05T15:20:40.886Z,4.60
2022-12-05T15:22:46.437Z,4.60
2022-12-05T15:24:50.488Z,4.70
2022-12-05T15:26:57.252Z,4.70
2022-12-05T15:29:04.141Z,4.70
2022-12-05T15:31:13.046Z,4.60
2022-12-05T15:33:17.196Z,4.60
2022-12-05T15:35:23.473Z,4.50
2022-12-05T15:37:35.498Z,4.50
2022-12-05T15:39:53.480Z,4.40
2022-12-05T15:41:58.663Z,4.50
2022-12-05T15:44:06.642Z,4.50
2022-12-05T15:46:24.002Z,4.50
2022-12-05T15:48:28.327Z,4.50
2022-12-05T15:50:34.882Z,4.60
2022-12-05T15:52:45.510Z,4.70
2022-12-05T15:54:49.973Z,4.70
2022-12-05T15:57:01.258Z,4.80
2022-12-05T15:59:13.955Z,4.80
2022-12-05T16:01:21.713Z,4.80
2022-12-05T16:03:36.833Z,4.80
2022-12-05T16:05:48.038Z,4.80
2022-12-05T16:07:54.449Z,4.70
2022-12-05T16:10:01.746Z,4.70
2022-12-05T16:12:16.849Z,4.70
2022-12-05T16:14:51.269Z,4.60
2022-12-05T16:16:47.393Z,4.60
2022-12-05T16:18:54.366Z,4.60
2022-12-05T16:20:58.910Z,4.60
2022-12-05T16:23:07.285Z,4.60
2022-12-05T16:25:16.522Z,4.60
2022-12-05T16:27:24.636Z,4.70
2022-12-05T16:29:29.920Z,4.60
2022-12-05T16:31:34.965Z,4.70
2022-12-05T16:33:43.517Z,4.70
2022-12-05T16:35:50.310Z,4.60
2022-12-05T16:38:15.705Z,4.60
2022-12-05T16:40:23.371Z,4.60
2022-12-05T16:42:28.535Z,4.60
2022-12-05T16:45:03.686Z,4.50
2022-12-05T16:47:23.580Z,4.60
2022-12-05T16:49:36.422Z,4.60
2022-12-05T16:51:45.548Z,4.60
2022-12-05T16:53:52.646Z,4.60
2022-12-05T16:56:00.596Z,4.60
2022-12-05T16:58:05.393Z,4.60
2022-12-05T17:00:15.692Z,4.50
2022-12-05T17:02:20.409Z,4.40
2022-12-05T17:04:24.593Z,4.40
2022-12-05T17:06:29.608Z,4.40
2022-12-05T17:08:33.683Z,4.40
2022-12-05T17:10:39.641Z,4.30
2022-12-05T17:12:47.793Z,4.30
2022-12-05T17:14:52.101Z,4.30
2022-12-05T17:16:56.176Z,4.30
2022-12-05T17:19:00.286Z,4.30
2022-12-05T17:21:04.510Z,4.30
2022-12-05T17:23:11.979Z,4.20
2022-12-05T17:25:22.277Z,4.30
2022-12-05T17:27:27.980Z,4.20
2022-12-05T17:29:35.827Z,4.30
2022-12-05T17:31:40.446Z,4.30
2022-12-05T17:33:45.056Z,4.30
2022-12-05T17:35:49.300Z,4.40
2022-12-05T17:37:53.496Z,4.30
2022-12-05T17:39:57.985Z,4.30
2022-12-05T17:42:02.426Z,4.30
2022-12-05T17:44:09.163Z,4.20
2022-12-05T17:46:16.980Z,4.30
2022-12-05T17:48:21.914Z,4.30
2022-12-05T17:50:27.628Z,4.30
2022-12-05T17:52:32.296Z,4.30
2022-12-05T17:54:38.989Z,4.30
2022-12-05T17:56:43.139Z,4.30
2022-12-05T17:58:47.420Z,4.30
2022-12-05T18:00:52.977Z,4.20
2022-12-05T18:02:57.493Z,4.20
2022-12-05T18:05:01.620Z,4.30
2022-12-05T18:07:07.159Z,4.40
2022-12-05T18:09:11.447Z,4.30
2022-12-05T18:11:16.363Z,4.20
2022-12-05T18:13:20.824Z,4.20
2022-12-05T18:15:28.326Z,4.20
2022-12-05T18:17:33.765Z,4.20
2022-12-05T18:19:37.997Z,4.30
2022-12-05T18:21:42.183Z,4.30
2022-12-05T18:23:46.303Z,4.30
2022-12-05T18:25:59.521Z,4.20
2022-12-05T18:28:04.646Z,4.30
2022-12-05T18:30:09.682Z,4.30
2022-12-05T18:32:13.749Z,4.20
2022-12-05T18:34:19.286Z,4.20
2022-12-05T18:36:23.513Z,4.20
2022-12-05T18:38:27.661Z,4.20
2022-12-05T18:40:31.685Z,4.20
2022-12-05T18:42:37.356Z,4.20
2022-12-05T18:44:41.423Z,4.20
2022-12-05T18:46:45.690Z,4.20
2022-12-05T18:48:50.000Z,4.20
2022-12-05T18:50:55.511Z,4.10
2022-12-05T18:52:59.619Z,4.10
2022-12-05T18:55:16.702Z,4.20
2022-12-05T18:57:21.241Z,4.20
2022-12-05T18:59:25.804Z,4.20
2022-12-05T19:01:30.869Z,4.10
2022-12-05T19:03:35.308Z,4.10
2022-12-05T19:05:39.328Z,4.10
2022-12-05T19:07:46.579Z,4.00
2022-12-05T19:09:50.709Z,4.00
2022-12-05T19:11:57.032Z,4.10
2022-12-05T19:14:02.624Z,4.10
2022-12-05T19:16:09.382Z,4.10
2022-12-05T19:18:13.483Z,4.10
2022-12-05T19:20:18.650Z,4.10
2022-12-05T19:22:23.860Z,4.10
2022-12-05T19:24:29.501Z,4.20
2022-12-05T19:26:33.971Z,4.10
2022-12-05T19:28:38.931Z,4.10
2022-12-05T19:30:43.184Z,4.10
2022-12-05T19:32:47.331Z,4.20
2022-12-05T19:34:51.503Z,4.20
2022-12-05T19:36:56.325Z,4.20
2022-12-05T19:39:00.683Z,4.20
2022-12-05T19:41:07.627Z,4.30
2022-12-05T19:43:11.629Z,4.30
2022-12-05T19:45:18.156Z,4.30
2022-12-05T19:47:23.650Z,4.30
2022-12-05T19:49:27.811Z,4.30
2022-12-05T19:51:32.876Z,4.40
2022-12-05T19:53:39.308Z,4.40
2022-12-05T19:55:43.431Z,4.40
2022-12-05T19:57:48.917Z,4.40
2022-12-05T19:59:53.039Z,4.40
2022-12-05T20:01:57.220Z,4.20
2022-12-05T20:04:03.046Z,4.20
2022-12-05T20:06:08.664Z,4.10
2022-12-05T20:08:12.800Z,4.10
2022-12-05T20:10:17.055Z,4.10
2022-12-05T20:12:21.670Z,4.20
2022-12-05T20:14:27.699Z,4.00
2022-12-05T20:16:33.706Z,4.00
2022-12-05T20:18:40.035Z,4.00
2022-12-05T20:20:44.320Z,4.00
2022-12-05T20:22:49.095Z,4.10
2022-12-05T20:24:53.256Z,4.10
2022-12-05T20:26:57.436Z,4.20
2022-12-05T20:29:02.767Z,4.20
2022-12-05T20:31:10.122Z,4.20
2022-12-05T20:33:14.204Z,4.20
2022-12-05T20:35:23.993Z,4.20
2022-12-05T20:37:31.155Z,4.10
2022-12-05T20:39:38.211Z,4.10
2022-12-05T20:41:42.360Z,4.10
2022-12-05T20:43:48.097Z,4.10
2022-12-05T20:45:52.204Z,4.10
2022-12-05T20:47:58.842Z,4.10
2022-12-05T20:50:03.125Z,4.10
2022-12-05T20:52:07.874Z,4.20
2022-12-05T20:54:13.783Z,4.10
2022-12-05T20:56:20.000Z,4.10
2022-12-05T20:58:24.134Z,4.10
2022-12-05T21:00:28.227Z,4.20
2022-12-05T21:02:32.373Z,4.10
2022-12-05T21:04:40.994Z,4.00
2022-12-05T21:06:46.650Z,4.00
2022-12-05T21:08:52.065Z,4.00
2022-12-05T21:10:56.169Z,4.10
2022-12-05T21:13:00.364Z,4.10
2022-12-05T21:15:05.026Z,4.20
2022-12-05T21:17:13.841Z,4.20
2022-12-05T21:19:19.036Z,4.30
2022-12-05T21:21:26.992Z,4.30
2022-12-05T21:23:31.312Z,4.40
2022-12-05T21:25:35.553Z,4.40
2022-12-05T21:27:39.607Z,4.40
2022-12-05T21:29:44.702Z,4.40
2022-12-05T21:31:51.651Z,4.40
2022-12-05T21:33:57.420Z,4.40
2022-12-05T21:36:01.506Z,4.30
2022-12-05T21:38:07.078Z,4.40
2022-12-05T21:40:11.839Z,4.40
2022-12-05T21:42:16.996Z,4.40
2022-12-05T21:44:21.335Z,4.40
2022-12-05T21:46:26.277Z,4.50
2022-12-05T21:48:30.627Z,4.50
2022-12-05T21:50:39.183Z,4.50
2022-12-05T21:52:43.219Z,4.50
2022-12-05T21:54:49.518Z,4.50
2022-12-05T21:56:53.575Z,4.60
2022-12-05T21:58:57.744Z,4.50
2022-12-05T22:01:01.938Z,4.50
2022-12-05T22:03:06.944Z,4.50
2022-12-05T22:05:11.247Z,4.40
2022-12-05T22:07:15.797Z,4.40
2022-12-05T22:09:19.870Z,4.40
2022-12-05T22:11:26.018Z,4.40
2022-12-05T22:13:30.075Z,4.40
2022-12-05T22:15:34.406Z,4.50
2022-12-05T22:17:38.573Z,4.50
2022-12-05T22:19:42.638Z,4.40
2022-12-05T22:21:46.688Z,4.50
2022-12-05T22:23:51.683Z,4.50
2022-12-05T22:26:00.352Z,4.50
2022-12-05T22:28:06.053Z,4.40
2022-12-05T22:30:10.886Z,4.40
2022-12-05T22:32:14.985Z,4.40
2022-12-05T22:34:19.043Z,4.50
2022-12-05T22:36:24.340Z,4.50
2022-12-05T22:38:30.946Z,4.50
2022-12-05T22:40:37.705Z,4.50
2022-12-05T22:42:41.788Z,4.50
2022-12-05T22:44:47.271Z,4.50
2022-12-05T22:46:51.383Z,4.60
2022-12-05T22:48:56.129Z,4.50
2022-12-05T22:51:01.261Z,4.50
2022-12-05T22:53:05.351Z,4.50
2022-12-05T22:55:10.337Z,4.50
2022-12-05T22:57:14.452Z,4.50
2022-12-05T22:59:18.569Z,4.50
2022-12-05T23:01:25.432Z,4.50
2022-12-05T23:03:29.509Z,4.50
2022-12-05T23:05:33.701Z,4.40
2022-12-05T23:07:37.881Z,4.50
2022-12-05T23:09:41.965Z,4.50
2022-12-05T23:11:46.009Z,4.50
2022-12-05T23:13:50.805Z,4.60
2022-12-05T23:15:55.131Z,4.50
2022-12-05T23:18:00.663Z,4.50
2022-12-05T23:20:05.661Z,4.50
2022-12-05T23:22:09.751Z,4.40
2022-12-05T23:24:14.292Z,4.50
2022-12-05T23:26:19.937Z,4.50
2022-12-05T23:28:23.987Z,4.50
2022-12-05T23:30:28.073Z,4.50
2022-12-05T23:32:32.088Z,4.50
2022-12-05T23:34:37.701Z,4.50
2022-12-05T23:36:41.741Z,4.40
2022-12-05T23:38:45.880Z,4.40
2022-12-05T23:41:00.296Z,4.40
2022-12-05T23:43:04.335Z,4.40
2022-12-05T23:45:09.061Z,4.50
2022-12-05T23:47:13.215Z,4.50
2022-12-05T23:49:17.342Z,4.40
2022-12-05T23:51:24.424Z,4.40
2022-12-05T23:53:29.325Z,4.40
2022-12-05T23:55:35.237Z,4.50
2022-12-05T23:57:39.325Z,4.50
2022-12-05T23:59:43.591Z,4.50
